Time;durP1;ratioP1;P1;durP2;ratioP2;P2;SDS_P1;SDS_P2;PMS_P1;PMS_P2;Temp;Humidity;BMP_temperature;BMP_pressure;BME280_temperature;BME280_humidity;BME280_pressure;Samples;Min_cycle;Max_cycle;Signal;HPM_P1;HPM_P2
2021/05/19 00:01:36;;;;;;;3.53;1.55;;;;;;;14.26;58.47;100212.78;5051804;28;20024;-67
2021/05/19 00:04:02;;;;;;;2.97;1.80;;;;;;;14.11;58.90;100220.31;5052401;28;20059;-69
2021/05/19 00:06:27;;;;;;;6.13;1.58;;;;;;;14.02;59.13;100218.41;5020429;28;20408;-69
2021/05/19 00:08:54;;;;;;;2.53;1.75;;;;;;;14.12;59.03;100216.84;5051745;28;20035;-69
2021/05/19 00:11:20;;;;;;;2.78;1.50;;;;;;;14.10;59.46;100216.81;5051727;28;20032;-70
2021/05/19 00:13:45;;;;;;;7.20;1.52;;;;;;;13.74;59.16;100148.72;5051745;28;20087;-67
2021/05/19 00:16:11;;;;;;;2.78;1.50;;;;;;;14.16;59.34;100221.25;5051882;28;20487;-69
2021/05/19 00:18:37;;;;;;;2.85;1.42;;;;;;;14.08;59.51;100214.19;5051773;28;20086;-68
2021/05/19 00:21:04;;;;;;;5.97;1.65;;;;;;;14.05;59.74;100211.53;5051482;28;20498;-68
2021/05/19 00:23:30;;;;;;;4.45;1.80;;;;;;;14.15;59.53;100224.69;5051656;28;20037;-68
2021/05/19 00:25:56;;;;;;;6.38;2.17;;;;;;;14.10;59.69;100215.97;5051784;28;20028;-67
2021/05/19 00:28:22;;;;;;;3.03;1.80;;;;;;;14.08;59.94;100223.69;5051669;28;20067;-68
2021/05/19 00:30:52;;;;;;;6.05;1.75;;;;;;;14.07;60.17;100233.22;5051795;28;20025;-67
2021/05/19 00:33:17;;;;;;;3.45;1.60;;;;;;;13.93;60.41;100226.88;5051391;28;20560;-67
2021/05/19 00:35:43;;;;;;;2.42;1.50;;;;;;;13.97;60.38;100233.00;5051333;28;20040;-68
2021/05/19 00:38:08;;;;;;;4.15;1.70;;;;;;;13.93;60.63;100233.78;5031548;28;20125;-68
2021/05/19 00:40:34;;;;;;;3.00;1.50;;;;;;;13.92;60.82;100230.34;5031696;28;20052;-67
2021/05/19 00:43:00;;;;;;;2.20;1.60;;;;;;;13.41;60.01;100221.53;5031373;28;20083;-69
2021/05/19 00:46:02;;;;;;;2.42;1.58;;;;;;;13.30;61.29;100251.50;5031342;28;20025;-67
2021/05/19 00:48:28;;;;;;;3.75;1.70;;;;;;;13.40;61.24;100259.53;5018646;28;20021;-68
2021/05/19 00:50:54;;;;;;;3.38;1.55;;;;;;;13.39;60.23;100247.41;5031398;28;20109;-66
2021/05/19 00:53:19;;;;;;;4.13;1.90;;;;;;;13.45;59.94;100249.25;5029144;28;20466;-69
2021/05/19 00:55:45;;;;;;;2.08;1.42;;;;;;;13.39;60.01;100237.03;5031140;28;20079;-68
2021/05/19 00:58:29;;;;;;;2.45;1.70;;;;;;;13.32;60.07;100244.63;5031183;28;20021;-68
2021/05/19 01:00:55;;;;;;;3.25;1.55;;;;;;;13.43;60.44;100243.16;5031417;28;20079;-68
2021/05/19 01:03:21;;;;;;;3.83;1.70;;;;;;;13.35;60.24;100245.56;5030711;28;20021;-68
2021/05/19 01:05:57;;;;;;;4.20;1.60;;;;;;;13.29;59.79;100245.44;5028322;28;20049;-67
2021/05/19 01:11:09;;;;;;;3.83;1.63;;;;;;;12.95;60.52;100239.47;5019532;28;20036;-67
2021/05/19 01:13:38;;;;;;;3.30;1.80;;;;;;;12.87;60.72;100215.09;5030944;28;20480;-67
2021/05/19 01:16:05;;;;;;;2.65;1.88;;;;;;;13.06;60.97;100237.13;5031241;28;20112;-68
2021/05/19 01:18:31;;;;;;;4.28;1.85;;;;;;;13.01;61.34;100250.00;5031295;28;20034;-68
2021/05/19 01:20:57;;;;;;;1.65;1.40;;;;;;;12.94;61.72;100235.13;5030640;28;20099;-69
2021/05/19 01:23:27;;;;;;;2.58;1.80;;;;;;;13.01;61.13;100234.44;5031121;28;20400;-72
2021/05/19 01:25:54;;;;;;;3.30;1.80;;;;;;;12.67;61.79;100237.94;5030790;28;20025;-69
2021/05/19 01:28:20;;;;;;;3.42;1.52;;;;;;;12.45;62.62;100248.63;5029735;28;20670;-68
2021/05/19 01:30:46;;;;;;;3.13;1.50;;;;;;;12.26;62.07;100187.75;5030541;28;20087;-70
2021/05/19 01:33:11;;;;;;;3.72;1.50;;;;;;;12.71;62.27;100251.00;5031052;28;20025;-68
2021/05/19 01:35:37;;;;;;;3.10;1.50;;;;;;;12.66;61.91;100221.53;5031055;28;20033;-68
2021/05/19 01:38:03;;;;;;;2.38;1.52;;;;;;;12.89;61.45;100239.34;5049696;28;20053;-69
2021/05/19 01:40:28;;;;;;;2.20;1.42;;;;;;;12.92;61.57;100241.97;5050510;28;20025;-68
2021/05/19 01:42:54;;;;;;;3.15;1.80;;;;;;;12.82;61.87;100240.88;5050249;28;20028;-70
2021/05/19 01:45:24;;;;;;;2.83;1.80;;;;;;;12.62;62.41;100222.28;5050917;28;20098;-68
2021/05/19 01:47:52;;;;;;;4.85;2.03;;;;;;;12.55;62.87;100238.53;5050571;28;20036;-68
2021/05/19 01:50:30;;;;;;;2.78;1.30;;;;;;;12.57;62.94;100236.81;5015463;28;20561;-71
2021/05/19 01:53:01;;;;;;;3.85;1.50;;;;;;;12.58;62.70;100236.00;5050299;28;20074;-67
2021/05/19 01:55:27;;;;;;;3.33;1.67;;;;;;;12.44;62.95;100226.16;5050591;28;20040;-72
2021/05/19 01:57:54;;;;;;;3.85;1.65;;;;;;;12.54;63.20;100235.03;5050653;28;20033;-67
2021/05/19 02:00:22;;;;;;;3.35;1.65;;;;;;;12.48;63.21;100244.38;5031672;28;20482;-67
2021/05/19 02:03:26;;;;;;;3.72;1.70;;;;;;;12.20;63.83;100243.63;5050721;28;20061;-66
2021/05/19 02:05:51;;;;;;;3.95;1.73;;;;;;;11.96;64.68;100236.97;4988686;28;20052;-71
2021/05/19 02:08:17;;;;;;;5.00;1.98;;;;;;;11.71;65.24;100241.41;4989176;28;20452;-68
2021/05/19 02:10:43;;;;;;;2.95;1.83;;;;;;;11.54;64.56;100189.25;4988991;28;20038;-68
2021/05/19 02:13:10;;;;;;;3.08;1.63;;;;;;;11.82;64.14;100252.97;4988808;28;20027;-67
2021/05/19 02:15:36;;;;;;;2.70;1.70;;;;;;;11.97;64.63;100256.81;4988635;28;20042;-68
2021/05/19 02:18:02;;;;;;;4.43;1.67;;;;;;;12.04;64.21;100271.69;4992599;28;20101;-68
2021/05/19 02:20:29;;;;;;;2.20;1.70;;;;;;;12.03;64.47;100264.75;4976050;28;20022;-70
2021/05/19 02:22:55;;;;;;;5.35;1.98;;;;;;;12.12;64.51;100262.44;4992393;28;20105;-68
2021/05/19 02:25:22;;;;;;;3.25;2.00;;;;;;;12.14;64.46;100257.31;4992309;28;20035;-68
2021/05/19 02:27:49;;;;;;;3.15;2.08;;;;;;;12.31;64.93;100268.09;4992444;28;20054;-70
2021/05/19 02:30:16;;;;;;;5.18;1.88;;;;;;;12.36;65.23;100270.81;4992270;28;20038;-70
2021/05/19 02:32:43;;;;;;;3.22;1.77;;;;;;;12.23;65.06;100244.59;4991827;28;20084;-68
2021/05/19 02:35:10;;;;;;;3.88;2.00;;;;;;;12.36;64.91;100273.41;4992428;28;20549;-68
2021/05/19 02:37:36;;;;;;;3.80;1.80;;;;;;;12.02;65.39;100244.03;4991672;28;20162;-67
2021/05/19 02:40:04;;;;;;;3.95;1.92;;;;;;;11.86;66.30;100265.97;4975950;28;20509;-68
2021/05/19 02:42:30;;;;;;;2.97;1.92;;;;;;;11.67;67.23;100262.84;5013585;28;20053;-70
2021/05/19 02:44:55;;;;;;;3.47;1.92;;;;;;;11.64;68.00;100266.22;5053637;28;20017;-68
2021/05/19 02:47:21;;;;;;;5.50;2.20;;;;;;;11.07;69.68;100228.34;5053309;28;20108;-72
2021/05/19 02:49:46;;;;;;;4.75;2.20;;;;;;;11.15;70.76;100264.72;5053275;28;20024;-67
2021/05/19 02:52:12;;;;;;;6.45;2.42;;;;;;;11.23;70.94;100265.88;5048516;28;20029;-70
2021/05/19 02:54:37;;;;;;;2.50;1.88;;;;;;;11.25;71.17;100251.28;5049296;28;20039;-67
2021/05/19 02:57:03;;;;;;;2.60;2.00;;;;;;;11.11;71.49;100261.19;5048230;28;20029;-68
2021/05/19 02:59:29;;;;;;;5.15;2.30;;;;;;;10.86;71.99;100244.03;5042961;28;20036;-71
2021/05/19 03:01:54;;;;;;;3.67;2.00;;;;;;;10.81;72.67;100259.38;5036225;28;20029;-69
2021/05/19 03:04:20;;;;;;;4.40;2.17;;;;;;;10.74;72.84;100256.53;5034735;28;20036;-70
2021/05/19 03:06:45;;;;;;;5.55;2.17;;;;;;;10.87;72.14;100260.44;5035007;28;20029;-67
2021/05/19 03:09:11;;;;;;;3.83;1.75;;;;;;;10.89;71.28;100248.41;5035546;28;20104;-68
2021/05/19 03:11:36;;;;;;;6.40;2.22;;;;;;;10.91;70.56;100236.44;5033889;28;20095;-68
2021/05/19 03:14:03;;;;;;;3.75;1.95;;;;;;;11.11;70.12;100274.09;5050766;28;20036;-72
2021/05/19 03:16:31;;;;;;;3.40;1.95;;;;;;;11.08;69.85;100281.75;5052728;28;20029;-68
2021/05/19 03:18:56;;;;;;;5.63;2.05;;;;;;;11.15;69.85;100281.13;5052661;28;20037;-68
2021/05/19 03:21:22;;;;;;;2.85;1.85;;;;;;;11.08;69.42;100273.13;5052957;28;20037;-67
2021/05/19 03:23:48;;;;;;;3.97;2.10;;;;;;;11.05;69.68;100266.16;5052639;28;20525;-67
2021/05/19 03:26:14;;;;;;;3.22;2.15;;;;;;;11.09;70.19;100285.22;5052644;28;20052;-69
2021/05/19 03:28:40;;;;;;;6.30;2.40;;;;;;;11.06;70.17;100280.81;5051810;28;20102;-68
2021/05/19 03:31:06;;;;;;;4.55;2.28;;;;;;;10.90;70.40;100288.91;5052290;28;20103;-68
2021/05/19 03:33:32;;;;;;;3.67;1.98;;;;;;;10.59;72.08;100290.47;5052780;28;20029;-68
2021/05/19 03:35:58;;;;;;;3.83;2.03;;;;;;;10.67;71.72;100289.03;5052669;28;20025;-67
2021/05/19 03:38:24;;;;;;;2.33;2.00;;;;;;;10.18;72.21;100224.56;5052978;28;20056;-68
2021/05/19 03:40:49;;;;;;;7.25;2.50;;;;;;;10.34;72.85;100276.69;5052552;28;20133;-71
2021/05/19 03:43:15;;;;;;;5.40;2.38;;;;;;;10.52;72.58;100277.34;5052327;28;20108;-68
2021/05/19 03:45:41;;;;;;;7.47;2.40;;;;;;;10.27;72.45;100218.84;5052513;28;20090;-68
2021/05/19 03:48:07;;;;;;;3.83;2.40;;;;;;;10.63;72.93;100297.47;5052062;28;20025;-68
2021/05/19 03:50:34;;;;;;;3.45;2.13;;;;;;;10.25;73.23;100238.53;5052469;28;20107;-67
2021/05/19 03:53:05;;;;;;;6.35;2.67;;;;;;;10.56;74.47;100292.97;5052529;28;20086;-68
2021/05/19 03:55:31;;;;;;;5.63;2.63;;;;;;;10.63;75.12;100302.66;5052610;28;20020;-68
2021/05/19 03:57:57;;;;;;;3.88;2.40;;;;;;;10.71;75.42;100296.06;5051833;28;20037;-69
2021/05/19 04:00:28;;;;;;;5.22;2.80;;;;;;;10.56;76.33;100272.31;5048657;28;20029;-70
2021/05/19 04:02:54;;;;;;;3.75;2.60;;;;;;;10.41;76.40;100239.13;5045593;28;20522;-70
2021/05/19 04:05:25;;;;;;;7.50;2.90;;;;;;;10.67;75.84;100284.75;5052091;28;20029;-70
2021/05/19 04:07:55;;;;;;;4.15;2.83;;;;;;;10.73;75.95;100286.66;5052461;28;20033;-71
2021/05/19 04:10:22;;;;;;;5.35;3.00;;;;;;;10.51;76.53;100277.31;5052573;28;20025;-70
2021/05/19 04:12:48;;;;;;;5.03;2.95;;;;;;;10.54;76.83;100295.47;5052271;28;20498;-69
2021/05/19 04:15:19;;;;;;;6.28;3.03;;;;;;;10.62;77.27;100300.91;5052148;28;20448;-69
2021/05/19 04:17:44;;;;;;;8.38;2.95;;;;;;;10.67;77.14;100296.78;5052283;28;20487;-69
2021/05/19 04:20:11;;;;;;;5.95;3.17;;;;;;;10.67;77.81;100309.69;5052229;28;20059;-69
2021/05/19 04:22:37;;;;;;;5.03;3.80;;;;;;;10.33;77.99;100246.53;5051842;28;20035;-69
2021/05/19 04:25:04;;;;;;;5.80;3.65;;;;;;;10.74;78.39;100309.09;5052094;28;20116;-69
2021/05/19 04:27:29;;;;;;;5.90;3.85;;;;;;;10.85;78.30;100306.84;5051802;28;20406;-69
2021/05/19 04:29:55;;;;;;;5.90;3.83;;;;;;;11.04;78.14;100305.75;5052064;28;20029;-69
2021/05/19 04:32:20;;;;;;;7.68;4.95;;;;;;;11.23;77.66;100298.59;5051792;28;20032;-70
2021/05/19 04:34:46;;;;;;;6.28;4.13;;;;;;;11.23;76.91;100289.13;5052181;28;20033;-70
2021/05/19 04:37:11;;;;;;;8.90;4.30;;;;;;;11.31;77.09;100294.53;5052063;28;20115;-69
2021/05/19 04:39:37;;;;;;;5.85;3.35;;;;;;;11.49;76.34;100294.22;5051561;28;20104;-69
2021/05/19 04:42:03;;;;;;;5.30;3.22;;;;;;;11.53;76.48;100297.78;5051448;28;20036;-70
2021/05/19 04:44:29;;;;;;;6.18;3.28;;;;;;;11.17;76.93;100227.78;5052254;28;20029;-69
2021/05/19 04:46:54;;;;;;;5.03;3.47;;;;;;;11.63;77.86;100294.63;5051613;28;20032;-69
2021/05/19 04:49:20;;;;;;;6.88;3.70;;;;;;;11.79;77.27;100296.84;5051695;28;20029;-69
2021/05/19 04:51:46;;;;;;;5.43;3.15;;;;;;;12.08;75.72;100304.56;5050346;28;20025;-69
2021/05/19 04:54:11;;;;;;;5.10;3.83;;;;;;;12.26;72.70;100305.91;5051613;28;20116;-69
2021/05/19 04:56:37;;;;;;;4.28;3.00;;;;;;;12.49;72.11;100303.09;5051506;28;20037;-70
2021/05/19 04:59:06;;;;;;;5.15;3.33;;;;;;;12.51;72.54;100279.00;5051545;28;20033;-70
2021/05/19 05:01:33;;;;;;;7.65;3.53;;;;;;;12.76;73.27;100289.94;5051512;28;20513;-70
2021/05/19 05:03:58;;;;;;;6.55;3.63;;;;;;;12.77;72.19;100279.66;5051312;28;20136;-69
2021/05/19 05:06:24;;;;;;;8.48;3.90;;;;;;;12.90;71.72;100292.91;5051098;28;20560;-69
2021/05/19 05:08:49;;;;;;;7.93;3.83;;;;;;;13.03;71.27;100283.72;5051348;28;20025;-70
2021/05/19 05:41:36;;;;;;;4.82;1.88;;;;;;;14.91;61.88;100281.44;5048119;28;20056;-69
2021/05/19 05:44:03;;;;;;;2.97;1.52;;;;;;;15.05;59.25;100273.88;5049893;28;20033;-70
2021/05/19 05:46:28;;;;;;;3.45;1.58;;;;;;;15.24;60.16;100285.44;5050879;28;20039;-70
2021/05/19 05:48:54;;;;;;;2.17;1.60;;;;;;;15.33;58.66;100287.31;5050783;28;20051;-71
2021/05/19 05:51:20;;;;;;;5.85;1.77;;;;;;;15.51;56.04;100278.88;5050800;28;20033;-69
2021/05/19 05:53:45;;;;;;;3.20;1.23;;;;;;;15.59;58.09;100286.75;5054751;28;20025;-68
2021/05/19 05:56:11;;;;;;;1.42;1.23;;;;;;;15.74;55.27;100287.00;5054865;28;20426;-70
2021/05/19 05:58:36;;;;;;;5.18;2.13;;;;;;;15.83;55.45;100294.94;5054828;28;20538;-70
2021/05/19 06:01:02;;;;;;;1.23;1.00;;;;;;;15.94;55.01;100281.19;5054519;28;20036;-71
2021/05/19 06:03:28;;;;;;;2.22;0.98;;;;;;;16.06;55.14;100283.06;5054902;28;20029;-71
2021/05/19 06:05:53;;;;;;;2.38;1.40;;;;;;;16.28;54.89;100299.78;5054692;28;20052;-71
2021/05/19 06:08:19;;;;;;;1.77;1.48;;;;;;;16.39;57.46;100300.78;5054398;28;20036;-70
2021/05/19 06:10:44;;;;;;;1.05;0.80;;;;;;;16.52;51.90;100301.78;5054606;28;20029;-70
2021/05/19 06:13:10;;;;;;;3.03;1.23;;;;;;;16.68;51.67;100297.59;5054287;28;20029;-70
2021/05/19 06:15:35;;;;;;;3.10;0.95;;;;;;;16.75;50.05;100285.50;5053080;28;20025;-70
2021/05/19 06:18:01;;;;;;;1.20;0.80;;;;;;;16.75;50.26;100286.34;5054378;28;20029;-69
2021/05/19 06:20:27;;;;;;;1.80;0.80;;;;;;;16.57;47.68;100224.50;5054474;28;20032;-70
2021/05/19 06:22:52;;;;;;;3.22;0.95;;;;;;;17.13;48.58;100275.41;5054346;28;20024;-72
2021/05/19 06:25:18;;;;;;;1.75;1.00;;;;;;;17.26;48.02;100288.53;5052600;28;20162;-69
2021/05/19 06:27:44;;;;;;;3.10;1.00;;;;;;;17.36;47.09;100277.28;5054262;28;20032;-70
2021/05/19 06:30:10;;;;;;;3.03;1.08;;;;;;;17.38;48.36;100285.09;5053287;28;20120;-71
2021/05/19 06:32:35;;;;;;;2.22;0.77;;;;;;;17.54;45.95;100288.69;5053578;28;20556;-74
2021/05/19 06:35:01;;;;;;;1.95;1.10;;;;;;;17.63;46.29;100287.00;5053964;28;20021;-72
2021/05/19 06:37:27;;;;;;;3.35;0.90;;;;;;;17.76;45.73;100282.69;5053974;28;20444;-71
2021/05/19 06:39:53;;;;;;;2.97;1.00;;;;;;;17.75;47.65;100272.25;5053936;28;20076;-71
2021/05/19 06:42:19;;;;;;;3.35;0.82;;;;;;;17.86;46.79;100272.28;5035105;28;20491;-69
2021/05/19 06:44:45;;;;;;;3.85;1.05;;;;;;;18.01;46.68;100271.50;5053773;28;20033;-70
2021/05/19 06:47:11;;;;;;;4.00;0.93;;;;;;;18.10;46.98;100263.69;5036151;28;20542;-70
2021/05/19 06:49:37;;;;;;;2.47;1.00;;;;;;;18.07;46.15;100264.56;5053744;28;20112;-70
2021/05/19 06:52:02;;;;;;;1.50;1.00;;;;;;;18.27;46.04;100263.75;5054135;28;20498;-70
2021/05/19 06:54:29;;;;;;;3.88;1.08;;;;;;;18.39;45.42;100268.09;5053867;28;20029;-70
2021/05/19 06:56:55;;;;;;;7.60;1.58;;;;;;;18.50;46.26;100257.66;5057594;28;20021;-71
2021/05/19 06:59:21;;;;;;;5.65;1.35;;;;;;;18.45;47.68;100251.56;5053740;28;20036;-74
2021/05/19 07:01:48;;;;;;;2.05;0.82;;;;;;;18.69;45.89;100243.75;5049790;28;20033;-71
2021/05/19 07:04:14;;;;;;;2.15;0.70;;;;;;;18.82;45.31;100251.59;5048109;28;20046;-71
2021/05/19 07:06:40;;;;;;;2.40;1.00;;;;;;;18.78;43.91;100205.38;5052112;28;20025;-73
2021/05/19 07:09:06;;;;;;;4.88;1.90;;;;;;;18.95;45.32;100202.75;5051898;28;20025;-74
2021/05/19 07:11:32;;;;;;;3.92;1.48;;;;;;;19.30;44.63;100238.44;5052941;28;20032;-70
2021/05/19 07:14:00;;;;;;;2.25;0.88;;;;;;;19.20;43.22;100190.47;5053514;28;20151;-70
2021/05/19 07:16:26;;;;;;;4.88;1.00;;;;;;;19.41;44.71;100241.91;5053780;28;20029;-71
2021/05/19 07:18:53;;;;;;;1.65;0.60;;;;;;;19.31;44.67;100227.97;5053435;28;20032;-70
2021/05/19 07:21:23;;;;;;;2.22;0.70;;;;;;;19.34;44.54;100227.97;5053323;28;20024;-71
2021/05/19 07:23:50;;;;;;;3.22;0.90;;;;;;;19.48;44.94;100224.44;5053517;28;20025;-72
2021/05/19 07:26:15;;;;;;;1.85;0.90;;;;;;;19.58;44.80;100223.53;5034809;28;20044;-70
2021/05/19 07:28:41;;;;;;;2.15;0.70;;;;;;;19.93;42.38;100216.41;5053262;28;20035;-70
2021/05/19 07:31:07;;;;;;;2.42;0.90;;;;;;;19.98;42.15;100214.63;5053307;28;20031;-70
2021/05/19 07:33:32;;;;;;;1.60;0.60;;;;;;;20.18;41.61;100190.91;5053141;28;20479;-71
2021/05/19 07:35:58;;;;;;;2.72;0.85;;;;;;;20.23;40.48;100194.38;5053041;28;20039;-69
2021/05/19 07:38:24;;;;;;;1.23;0.80;;;;;;;20.45;40.21;100200.31;5052989;28;20036;-70
2021/05/19 07:40:50;;;;;;;3.30;0.70;;;;;;;20.34;40.63;100200.41;5053357;28;20544;-70
2021/05/19 07:43:16;;;;;;;3.05;0.80;;;;;;;20.47;40.61;100201.19;5053101;28;20025;-71
2021/05/19 07:45:42;;;;;;;2.28;0.80;;;;;;;20.65;40.49;100194.03;5052975;28;20031;-73
2021/05/19 07:48:09;;;;;;;0.75;0.75;;;;;;;20.80;40.30;100182.56;5053086;28;20017;-71
2021/05/19 07:50:35;;;;;;;0.73;0.70;;;;;;;20.77;40.24;100167.72;5052944;28;20029;-70
2021/05/19 07:53:05;;;;;;;1.35;0.60;;;;;;;21.02;40.65;100185.81;5052800;28;20083;-71
2021/05/19 07:55:43;;;;;;;6.75;1.15;;;;;;;20.96;40.86;100170.13;5052837;28;20070;-69
2021/05/19 07:58:24;;;;;;;2.60;1.08;;;;;;;21.12;40.01;100179.59;5053289;28;20107;-70
2021/05/19 08:03:18;;;;;;;3.33;1.25;;;;;;;20.90;40.03;100171.09;5052727;28;20028;-71
2021/05/19 08:05:44;;;;;;;1.50;0.80;;;;;;;20.84;40.69;100169.38;5052650;28;20025;-70
2021/05/19 08:08:10;;;;;;;1.23;0.80;;;;;;;20.83;39.06;100159.75;5052399;28;20033;-71
2021/05/19 08:10:37;;;;;;;2.28;1.10;;;;;;;20.62;40.31;100099.63;5052372;28;20040;-73
2021/05/19 08:13:03;;;;;;;1.23;0.90;;;;;;;20.76;38.85;100091.66;5052544;28;20025;-70
2021/05/19 08:15:28;;;;;;;2.35;0.80;;;;;;;21.36;38.99;100153.94;5051986;28;20112;-71
2021/05/19 08:17:54;;;;;;;2.83;1.17;;;;;;;21.50;42.38;100157.25;5052502;28;20407;-70
2021/05/19 08:20:20;;;;;;;5.75;0.90;;;;;;;21.47;37.46;100132.78;5051799;28;20086;-70
2021/05/19 08:22:47;;;;;;;1.20;0.68;;;;;;;21.76;37.73;100152.56;5051815;28;20040;-70
2021/05/19 08:25:13;;;;;;;3.15;0.90;;;;;;;21.09;36.07;100045.75;5052265;28;20060;-71
2021/05/19 08:27:38;;;;;;;4.68;0.70;;;;;;;21.73;35.63;100157.84;5052175;28;20068;-70
2021/05/19 08:30:05;;;;;;;1.02;0.75;;;;;;;21.81;35.34;100125.31;5051227;28;20610;-69
2021/05/19 08:32:30;;;;;;;2.38;1.52;;;;;;;21.70;34.55;100095.72;5066547;28;20044;-67
2021/05/19 08:34:56;;;;;;;0.80;0.60;;;;;;;22.20;35.39;100143.13;5051015;28;20067;-69
2021/05/19 08:37:21;;;;;;;1.77;0.75;;;;;;;22.24;33.56;100125.53;5051354;28;20025;-69
2021/05/19 08:39:48;;;;;;;1.90;0.90;;;;;;;22.35;34.82;100125.34;5051993;28;20036;-69
2021/05/19 08:42:14;;;;;;;1.50;0.73;;;;;;;22.58;33.28;100127.59;5051706;28;20029;-71
2021/05/19 08:44:41;;;;;;;2.88;0.85;;;;;;;22.65;32.64;100126.59;5049835;28;20075;-70
2021/05/19 08:47:06;;;;;;;1.33;0.80;;;;;;;22.60;33.61;100112.66;5050951;28;20056;-69
2021/05/19 08:49:32;;;;;;;1.65;1.00;;;;;;;22.87;33.40;100139.38;5051336;28;20079;-70
2021/05/19 08:51:58;;;;;;;2.15;0.90;;;;;;;22.89;32.83;100134.91;5050776;28;20029;-70
2021/05/19 08:54:24;;;;;;;1.20;0.70;;;;;;;22.71;33.51;100131.75;5050977;28;20100;-71
2021/05/19 08:56:51;;;;;;;2.15;1.20;;;;;;;22.90;33.80;100136.66;5051136;28;20072;-71
2021/05/19 08:59:19;;;;;;;1.77;1.40;;;;;;;23.04;34.37;100129.38;5051411;28;20028;-70
2021/05/19 09:01:50;;;;;;;3.65;1.38;;;;;;;23.00;34.07;100111.03;5049976;28;20121;-70
2021/05/19 09:04:22;;;;;;;2.85;1.48;;;;;;;23.26;33.75;100115.78;5047863;28;20112;-73
2021/05/19 09:06:59;;;;;;;4.82;1.85;;;;;;;23.22;34.05;100114.13;5050970;28;20051;-70
2021/05/19 09:09:31;;;;;;;3.33;1.63;;;;;;;23.38;33.82;100119.94;5049647;28;20025;-71
2021/05/19 09:12:02;;;;;;;3.80;1.60;;;;;;;23.41;33.81;100114.59;5048172;28;20125;-72
2021/05/19 09:14:32;;;;;;;4.85;1.83;;;;;;;23.52;34.44;100098.56;5050845;28;20035;-73
2021/05/19 09:17:17;;;;;;;4.68;1.50;;;;;;;23.58;34.19;100099.25;4996623;28;20585;-70
2021/05/19 09:19:43;;;;;;;4.72;1.80;;;;;;;23.50;34.71;100093.31;5048793;28;20056;-74
2021/05/19 09:22:22;;;;;;;3.80;1.30;;;;;;;22.90;34.57;100003.31;5050745;28;20161;-70
2021/05/19 09:24:49;;;;;;;1.88;1.30;;;;;;;23.61;34.59;100079.03;5050386;28;20052;-71
2021/05/19 09:27:16;;;;;;;3.03;1.50;;;;;;;23.65;34.94;100080.69;5049960;28;20029;-71
2021/05/19 09:29:50;;;;;;;7.45;1.85;;;;;;;23.68;33.80;100067.44;5049704;28;20498;-71
2021/05/19 09:32:17;;;;;;;5.47;2.17;;;;;;;23.80;35.05;100092.63;5050285;28;20033;-71
2021/05/19 09:34:45;;;;;;;10.98;3.20;;;;;;;23.90;35.85;100076.56;5046261;28;20499;-69
2021/05/19 09:37:11;;;;;;;6.03;2.42;;;;;;;24.04;36.74;100078.03;5048920;28;20072;-73
2021/05/19 09:39:47;;;;;;;4.90;1.48;;;;;;;24.03;36.95;100077.16;5049852;28;20048;-73
2021/05/19 09:42:13;;;;;;;2.45;1.25;;;;;;;23.96;37.09;100057.09;5048632;28;20029;-72
2021/05/19 09:44:40;;;;;;;2.85;1.42;;;;;;;24.04;38.14;100067.47;5049880;28;20079;-70
2021/05/19 09:47:06;;;;;;;6.20;1.40;;;;;;;24.09;37.23;100059.44;5049929;28;20115;-73
2021/05/19 09:49:31;;;;;;;4.55;1.45;;;;;;;24.17;36.89;100052.19;5050339;28;20451;-73
2021/05/19 09:52:07;;;;;;;3.65;1.40;;;;;;;24.42;37.44;100054.19;5050090;28;20036;-77
2021/05/19 09:54:34;;;;;;;1.75;1.20;;;;;;;24.44;36.91;100049.75;5048692;28;20028;-72
2021/05/19 09:57:06;;;;;;;3.58;1.30;;;;;;;24.49;36.55;100053.13;5049944;28;20538;-73
2021/05/19 09:59:32;;;;;;;2.67;1.58;;;;;;;24.10;37.21;99993.47;5050021;28;20505;-70
2021/05/19 10:02:00;;;;;;;3.63;1.25;;;;;;;24.45;37.45;100038.25;5049206;28;20464;-72
2021/05/19 10:04:50;;;;;;;5.05;1.30;;;;;;;24.69;36.74;100024.41;5031359;28;20029;-71
2021/05/19 10:07:14;;;;;;;4.18;1.88;;;;;;;24.71;36.17;99980.38;5049276;28;20036;-71
2021/05/19 10:09:41;;;;;;;3.47;1.55;;;;;;;25.02;36.72;100011.13;5051547;28;20033;-72
2021/05/19 10:12:07;;;;;;;2.60;1.45;;;;;;;25.00;35.65;100001.53;5050333;28;20089;-71
2021/05/19 10:14:33;;;;;;;4.30;1.48;;;;;;;24.65;37.26;99961.19;5050179;28;20021;-71
2021/05/19 10:17:04;;;;;;;3.60;1.50;;;;;;;25.21;35.76;100005.28;5050119;28;20028;-72
2021/05/19 10:19:37;;;;;;;3.53;1.60;;;;;;;25.40;36.34;99986.25;5049726;28;20103;-72
2021/05/19 10:22:07;;;;;;;4.18;1.10;;;;;;;25.46;36.13;99941.97;5050180;28;20021;-75
2021/05/19 10:25:04;;;;;;;5.60;1.30;;;;;;;26.12;35.58;100005.00;5056253;28;20029;-70
2021/05/19 10:27:49;;;;;;;3.80;2.10;;;;;;;26.21;34.83;99995.88;5050099;28;20040;-70
2021/05/19 10:30:37;;;;;;;3.25;1.33;;;;;;;26.53;33.40;99991.19;5048377;28;20072;-73
2021/05/19 10:33:04;;;;;;;2.50;1.20;;;;;;;26.31;33.83;99922.31;5049063;28;20033;-71
2021/05/19 10:35:33;;;;;;;3.00;1.40;;;;;;;26.56;34.39;99971.69;5046921;28;20032;-72
2021/05/19 10:38:22;;;;;;;5.07;1.30;;;;;;;26.11;35.24;99979.44;5051835;28;20539;-70
2021/05/19 10:40:52;;;;;;;1.60;1.13;;;;;;;26.23;34.80;99986.09;5051518;28;20284;-72
2021/05/19 10:43:19;;;;;;;3.65;1.25;;;;;;;26.39;34.62;99970.50;5035639;28;20020;-71
2021/05/19 10:45:50;;;;;;;2.92;1.73;;;;;;;26.29;32.24;99956.78;5053385;28;20091;-73
2021/05/19 10:48:35;;;;;;;4.40;1.40;;;;;;;26.41;32.59;99958.09;5053779;28;20025;-72
2021/05/19 10:51:33;;;;;;;2.40;1.17;;;;;;;26.88;31.70;99945.75;5052727;28;20063;-74
2021/05/19 11:00:16;;;;;;;6.55;1.20;;;;;;;27.13;31.23;99929.78;5051954;28;20087;-73
2021/05/19 11:05:28;;;;;;;3.42;1.20;;;;;;;27.28;31.14;99928.28;5052031;28;20044;-74
2021/05/19 11:08:06;;;;;;;4.75;1.30;;;;;;;27.69;29.61;99922.19;5052586;28;20021;-72
2021/05/19 11:11:02;;;;;;;4.25;1.27;;;;;;;27.31;32.94;99922.84;5051881;28;20028;-71
2021/05/19 11:13:54;;;;;;;2.22;1.00;;;;;;;26.70;31.92;99883.78;5051994;28;20406;-70
2021/05/19 11:16:25;;;;;;;7.00;1.40;;;;;;;26.88;32.71;99906.03;5053942;28;20017;-73
2021/05/19 11:21:27;;;;;;;11.93;1.35;;;;;;;26.93;32.72;99901.41;5050273;28;20031;-70
2021/05/19 11:24:13;;;;;;;3.05;1.17;;;;;;;26.75;33.30;99889.78;5052594;28;20482;-72
2021/05/19 11:26:44;;;;;;;3.15;1.20;;;;;;;26.71;33.32;99883.72;5052000;28;20065;-70
2021/05/19 11:29:12;;;;;;;2.45;1.30;;;;;;;26.66;33.68;99884.84;5052745;28;20036;-73
2021/05/19 11:31:44;;;;;;;3.15;1.20;;;;;;;26.57;34.49;99851.63;5053071;28;20025;-70
2021/05/19 11:34:14;;;;;;;5.28;1.30;;;;;;;26.94;31.92;99876.66;5052718;28;20028;-73
2021/05/19 11:36:53;;;;;;;7.00;1.67;;;;;;;26.70;32.52;99826.38;5034993;28;20501;-70
2021/05/19 11:39:23;;;;;;;6.03;1.13;;;;;;;27.35;31.82;99868.78;5052969;28;20064;-71
2021/05/19 11:41:53;;;;;;;3.72;1.00;;;;;;;27.72;30.55;99869.88;5052497;28;20049;-70
2021/05/19 11:44:59;;;;;;;4.70;1.40;;;;;;;27.93;29.73;99873.34;5050306;28;20037;-70
2021/05/19 11:47:27;;;;;;;3.95;1.10;;;;;;;27.51;31.07;99868.16;4970077;28;20034;-70
2021/05/19 11:50:16;;;;;;;2.03;1.00;;;;;;;26.98;33.04;99867.69;4970723;28;20046;-77
2021/05/19 11:52:47;;;;;;;5.05;1.40;;;;;;;26.93;35.66;99853.75;4967933;28;20453;-73
2021/05/19 11:55:27;;;;;;;2.78;1.20;;;;;;;26.98;33.98;99856.22;4970819;28;20035;-74
2021/05/19 11:58:26;;;;;;;1.90;1.10;;;;;;;27.32;34.16;99860.13;4967139;28;20042;-72
2021/05/19 12:00:57;;;;;;;3.40;1.45;;;;;;;27.47;33.55;99851.53;4931901;29;20056;-72
2021/05/19 12:03:25;;;;;;;2.75;1.23;;;;;;;27.28;34.31;99849.63;4929526;29;20049;-72
2021/05/19 12:05:54;;;;;;;3.35;1.10;;;;;;;26.34;34.33;99749.31;4932873;29;20054;-72
2021/05/19 12:08:22;;;;;;;2.00;1.13;;;;;;;26.39;33.86;99785.25;4932707;29;20036;-74
2021/05/19 12:11:12;;;;;;;4.80;1.53;;;;;;;26.50;36.78;99829.81;4931461;29;20044;-74
2021/05/19 12:13:39;;;;;;;4.15;1.35;;;;;;;26.60;38.02;99828.53;4931900;29;20031;-71
2021/05/19 12:16:29;;;;;;;2.92;1.45;;;;;;;27.17;36.60;99832.47;4899065;29;20032;-72
2021/05/19 12:18:58;;;;;;;2.53;1.15;;;;;;;27.25;35.76;99835.66;4930607;29;20067;-72
2021/05/19 12:21:25;;;;;;;4.45;1.20;;;;;;;27.20;35.45;99819.09;4932376;29;20122;-73